Tiempo atmosférico en la estación meteorológica de Fuente Palmera, Córdoba (120 m.)



Fecha
DESCASC
Temp. máxima en grados centígrados (hora)
DESCASC
Temp. mínima en grados centígrados (hora)
DESCASC
Temp. media en grados centígrados
DESCASC
Racha de viento máxima en m/sg (hora)
DESCASC
Velocidad máxima media en intervalos de 10 minutos(hora)
DESCASC
Precipitaciones diarias en mm
DESCASC
Precipitaciones de 00:00 a 06:00 en mm
DESCASC
Precipitaciones de 06:00 a 12:00 en mm
DESCASC
Precipitaciones de 12:00 a 18:00 en mm
DESCASC
Precipitaciones de 18:00 a 24:00 en mm
DESCASC
23-05-2018 28.7 (16:50) 13.3 (07:00) 21 7.22 (13:40) 3.61 (19:30) 0 0 0 0 0
22-05-2018 27.7 (18:30) 14.1 (06:40) 20.9 6.11 (18:00) 2.78 (20:40) 0.2 0 0.2 0 0
21-05-2018 25.9 (16:40) 13 (06:20) 19.4 11.11 (17:20) 6.67 (17:30) 0.4 0 0 0 0.4
20-05-2018 23.7 (16:40) 12.6 (00:00) 18.2 10 (19:40) 6.11 (19:50) 0.4 0 0 0.2 0.2
19-05-2018 27.7 (15:30) 15.6 (00:00) 21.7 15.28 (17:10) 9.44 (17:20) 0 0 0 0 0
18-05-2018 26.3 (14:50) 14 (00:00) 20.1 11.11 (16:30) 6.39 (16:30) 0.8 0 0 0.8 0
17-05-2018 29.5 (18:50) 12.5 (00:00) 21 10.28 (22:00) 6.39 (22:00) 0 0 0 0 0
16-05-2018 29.6 (18:30) 12.2 (00:00) 20.9 8.33 (18:00) 5 (22:30) 0 0 0 0 0
15-05-2018 29.7 (20:00) 12.5 (00:00) 21.1 10 (12:10) 6.67 (12:10) 0 0 0 0 0
14-05-2018 27.5 (17:50) 9.8 (00:00) 18.7 7.5 (11:50) 5 (20:10) 0 0 0 0 0
13-05-2018 24 (18:20) 9.6 (00:00) 16.8 11.94 (19:00) 5.56 (19:40) 0 0 0 0 0
12-05-2018 24.7 (17:30) 12.4 (00:00) 18.6 10.83 (18:10) 6.94 (18:40) 0 0 0 0 0
11-05-2018 25.4 (16:30) 10.8 (07:10) 18.1 9.44 (18:10) 5.56 (16:40) 0 0 0 0 0
10-05-2018 24.8 (17:00) 15.5 (00:00) 20.1 7.5 (16:30) 4.17 (18:40) 0 0 0 0 0
09-05-2018 21.6 (16:30) 15.5 (00:00) 18.6 8.61 (17:40) 5.28 (16:00) 0 0 0 0 0
08-05-2018 26.4 (15:00) 13.3 (00:00) 19.8 6.67 (14:40) 3.89 (19:50) 0 0 0 0 0
07-05-2018 28.1 (17:10) 12.3 (00:00) 20.2 7.22 (20:30) 4.72 (20:30) 0 0 0 0 0
06-05-2018 27.3 (18:00) 13.2 (00:00) 20.2 11.67 (19:10) 7.22 (19:10) 0.2 0 0 0 0.2
05-05-2018 27.9 (18:20) 10.4 (00:00) 19.1 5.83 (22:20) 3.61 (22:30) 0 0 0 0 0
04-05-2018 25.5 (17:30) 10.3 (00:00) 17.9 9.44 (20:20) 5.28 (12:10) 0 0 0 0 0
03-05-2018 25.2 (17:20) 7.7 (00:00) 16.5 7.5 (18:00) 4.17 (18:00) 0 0 0 0 0
02-05-2018 21.2 (18:10) 5.7 (00:00) 13.5 7.5 (17:20) 4.17 (18:50) 0 0 0 0 0
01-05-2018 16.9 (20:30) 6.8 (07:20) 11.8 10 (14:10) 5.28 (14:20) 3.8 0 1.4 2.4 0
30-04-2018 18 (17:30) 5.7 (00:00) 11.8 8.06 (17:00) 4.44 (19:30) 0 0 0 0 0
29-04-2018 18.6 (16:00) 8 (00:00) 13.3 13.89 (16:10) 7.5 (14:50) 0.6 0 0 0.2 0.4
28-04-2018 20.2 (17:00) 12.1 (00:00) 16.2 11.67 (18:40) 6.67 (16:50) 0 0 0 0 0

Gráficas

Temp. máximas Temp. mínimas Temp. medias Precipitaciones Rachas de viento máximas Velocidades máximas media en intervalos de 10 minutos

Datos horarios

Fecha y hora oficial Temperatura (ºC) Velocidad del viento (km/h) Dirección del viento Racha (km/h) Dirección de racha Precipitación (mm) Presión (hPa) Tendencia (hPa) Humedad (%)
2018-05-27 23:00:00 19 11 Sudoeste 25 Sudoeste 0 -- -- 63
2018-05-27 22:00:00 20.4 11 Sudoeste 30 Sudoeste 0 -- -- 56
2018-05-27 21:00:00 22.7 17 Sudoeste 32 Sudoeste 0 -- -- 49
2018-05-27 20:00:00 24.6 23 Oeste 39 Oeste 0 -- -- 42
2018-05-27 19:00:00 25.6 14 Oeste 33 Oeste 0 -- -- 39
2018-05-27 18:00:00 25.3 16 Oeste 33 Oeste 0 -- -- 40
2018-05-27 17:00:00 24.8 17 Oeste 32 Oeste 0 -- -- 43
2018-05-27 16:00:00 24.3 14 Oeste 34 Oeste 0 -- -- 45
2018-05-27 15:00:00 23.7 15 Oeste 27 Oeste 0 -- -- 51
2018-05-27 14:00:00 21.6 17 Oeste 28 Oeste 0 -- -- 61
2018-05-27 13:00:00 21.6 14 Oeste 24 Oeste 0 -- -- 61
2018-05-27 12:00:00 20.7 12 Oeste 23 Oeste 0 -- -- 68
2018-05-27 11:00:00 18.7 7 Sudoeste 16 Oeste 0 -- -- 77
2018-05-27 10:00:00 17.5 9 Oeste 18 Oeste 0 -- -- 83
2018-05-27 09:00:00 16.4 9 Oeste 15 Oeste 0 -- -- 89
2018-05-27 08:00:00 15.7 5 Oeste 9 Oeste 0 -- -- 92
2018-05-27 07:00:00 14.8 4 Sudoeste 12 Sudoeste 0 -- -- 94
2018-05-27 06:00:00 14.5 6 Sur 12 Sur 0 -- -- 92
2018-05-27 05:00:00 15 2 Sudoeste 6 Sudoeste 0 -- -- 87
2018-05-27 04:00:00 15.8 3 Sudoeste 14 Sudoeste 0 -- -- 83
2018-05-27 03:00:00 16.5 10 Sudoeste 19 Sur 0 -- -- 78
2018-05-27 02:00:00 16.9 3 Sudoeste 12 Oeste 0 -- -- 72
2018-05-27 01:00:00 17.5 5 Oeste 8 Sudoeste 0 -- -- 69
2018-05-27 00:00:00 18.7 3 Oeste 14 Oeste 0 -- -- 64
2018-05-26 23:00:00 19.8 7 Sudoeste 18 Oeste 0 -- -- 58
2018-05-26 22:00:00 21.1 8 Sudoeste 21 Oeste 0 -- -- 51
2018-05-26 21:00:00 23.2 13 Oeste 23 Oeste 0 -- -- 45
2018-05-26 20:00:00 24.9 13 Oeste 30 Oeste 0 -- -- 40
2018-05-26 19:00:00 25.5 12 Oeste 22 Oeste 0 -- -- 39
2018-05-26 18:00:00 25.8 11 Oeste 23 Noroeste 0 -- -- 39
2018-05-26 17:00:00 24.8 8 Oeste 21 Oeste 0 -- -- 41
2018-05-26 16:00:00 25.2 7 Noroeste 18 Oeste 0 -- -- 42
2018-05-26 15:00:00 24.7 7 Noroeste 21 Oeste 0 -- -- 43
2018-05-26 14:00:00 23.2 5 Sudoeste 16 Sur 0 -- -- 51
2018-05-26 13:00:00 21.7 5 Noroeste 15 Oeste 0 -- -- 56
2018-05-26 12:00:00 22.2 5 Sudeste 12 Sur 0 -- -- 55
2018-05-26 11:00:00 20.2 4 Nordeste 18 Nordeste 0 -- -- 64
2018-05-26 10:00:00 18 5 Noroeste 10 Nordeste 0 -- -- 75
2018-05-26 09:00:00 15.9 5 Nordeste 9 Nordeste 0 -- -- 83
2018-05-26 08:00:00 13.6 4 Este 6 Este 0 -- -- 91
2018-05-26 07:00:00 12.9 3 Este 5 Este 0 -- -- 92
2018-05-26 06:00:00 12.6 3 Nordeste 5 Sur 0 -- -- 90
2018-05-26 05:00:00 13.3 3 Sudeste 5 Sudeste 0 -- -- 89
2018-05-26 04:00:00 14.2 0 Calma 8 Oeste 0 -- -- 86
2018-05-26 03:00:00 15 4 Oeste 11 Sudoeste 0 -- -- 83
2018-05-26 02:00:00 15.9 8 Sudoeste 15 Sudoeste 0 -- -- 78
2018-05-26 01:00:00 16.4 6 Sudoeste 14 Oeste 0 -- -- 74
2018-05-26 00:00:00 17.8 7 Sudoeste 15 Sudoeste 0 -- -- 67
2018-05-25 23:00:00 18.2 7 Oeste 14 Oeste 0 -- -- 63
2018-05-25 22:00:00 18.8 5 Sudoeste 25 Oeste 0 -- -- 59
2018-05-25 21:00:00 20.7 13 Oeste 25 Oeste 0 -- -- 52
2018-05-25 20:00:00 21.4 15 Oeste 32 Sudoeste 0 -- -- 50
2018-05-25 19:00:00 22.5 14 Oeste 28 Oeste 0 -- -- 46
2018-05-25 18:00:00 21 8 Noroeste 21 Noroeste 0 -- -- 55
2018-05-25 17:00:00 19.4 18 Oeste 30 Oeste 0 -- -- 66
2018-05-25 16:00:00 22.4 8 Sur 28 Oeste 0 -- -- 46
2018-05-25 15:00:00 20.8 15 Oeste 39 Oeste 0 -- -- 56
2018-05-25 14:00:00 22 11 Sudoeste 21 Sudoeste 0 -- -- 42
2018-05-25 13:00:00 21.7 8 Oeste 18 Sudoeste 0 -- -- 48
2018-05-25 12:00:00 19.8 7 Oeste 18 Sudoeste 0 -- -- 58
2018-05-25 11:00:00 18.8 7 Sudoeste 16 Oeste 0 -- -- 61
2018-05-25 10:00:00 17.2 7 Sudoeste 14 Sudoeste 0 -- -- 76
2018-05-25 09:00:00 16.4 6 Sur 12 Sur 0 -- -- 81
2018-05-25 08:00:00 15.6 6 Sur 10 Sur 0 -- -- 88
2018-05-25 07:00:00 14.9 4 Sur 6 Sudoeste 0 -- -- 90
2018-05-25 06:00:00 15.1 4 Sudoeste 6 Sur 0 -- -- 87
2018-05-25 05:00:00 15.3 3 Oeste 6 Sudeste 0 -- -- 84
2018-05-25 04:00:00 14.7 3 Sudeste 10 Sudoeste 0 -- -- 84
2018-05-25 03:00:00 15.1 4 Sudoeste 9 Sudoeste 0 -- -- 83
2018-05-25 02:00:00 15.4 4 Sudoeste 15 Sudoeste 0 -- -- 83
2018-05-25 01:00:00 15.3 6 Sudoeste 23 Oeste 0 -- -- 81
2018-05-25 00:00:00 15.5 9 Sudoeste 24 Sudoeste 0 -- -- 79
2018-05-24 23:00:00 16.3 11 Sudoeste 22 Oeste 0 -- -- 71
2018-05-24 22:00:00 17.3 13 Oeste 33 Oeste 0 -- -- 70
2018-05-24 21:00:00 18.4 16 Sudoeste 33 Oeste 0 -- -- 62
2018-05-24 20:00:00 20.1 23 Oeste 40 Oeste 0 -- -- 63
2018-05-24 19:00:00 22.2 21 Oeste 44 Oeste 0 -- -- 52
2018-05-24 18:00:00 23.8 22 Oeste 43 Oeste 0 -- -- 45
2018-05-24 17:00:00 24.9 23 Oeste 41 Oeste 0 -- -- 45
2018-05-24 16:00:00 25.5 19 Oeste 44 Oeste 0 -- -- 45
2018-05-24 15:00:00 24.7 22 Oeste 46 Oeste 0 -- -- 47
2018-05-24 14:00:00 25.3 19 Oeste 34 Oeste 0 -- -- 46
2018-05-24 13:00:00 24.8 17 Oeste 30 Oeste 0 -- -- 50
2018-05-24 12:00:00 24.1 10 Oeste 24 Oeste 0 -- -- 54
2018-05-24 11:00:00 22 5 Oeste 14 Sudoeste 0 -- -- 59
2018-05-24 10:00:00 20.2 5 Sudoeste 15 Sur 0 -- -- 66
2018-05-24 09:00:00 18.6 7 Sur 11 Sudeste 0 -- -- 75
2018-05-24 08:00:00 16.6 3 Noroeste 8 Noroeste 0 -- -- 85
2018-05-24 07:00:00 17 3 Oeste 10 Sur 0 -- -- 81
2018-05-24 06:00:00 17.1 4 Sudeste 12 Sur 0 -- -- 83
2018-05-24 05:00:00 17.2 3 Sudeste 13 Sudoeste 0 -- -- 78
2018-05-24 04:00:00 17.3 0 Calma 8 Oeste 0 -- -- 73
2018-05-24 03:00:00 18.1 6 Oeste 14 Sudoeste 0 -- -- 70
2018-05-24 02:00:00 19.6 10 Sudoeste 23 Sudoeste 0 -- -- 65
2018-05-24 01:00:00 21.4 4 Sudoeste 17 Sudoeste 0 -- -- 58
2018-05-24 00:00:00 22.8 9 Sur 13 Sudeste 0 -- -- 51
2018-05-23 23:00:00 23.8 9 Este 11 Este 0 -- -- 47
2018-05-23 22:00:00 25.2 6 Este 10 Este 0 -- -- 41
2018-05-23 21:00:00 26.7 2 Este 14 Este 0 -- -- 37
2018-05-23 20:00:00 27.1 10 Este 24 Nordeste 0 -- -- 34
2018-05-23 19:00:00 28.5 11 Este 19 Este 0 -- -- 31
2018-05-23 18:00:00 28.1 9 Este 19 Este 0 -- -- 27
2018-05-23 17:00:00 28.3 10 Sudeste 23 Sudeste 0 -- -- 25
2018-05-23 16:00:00 28.1 6 Este 14 Sur 0 -- -- 26
2018-05-23 15:00:00 27.3 6 Sur 18 Sur 0 -- -- 27
2018-05-23 14:00:00 27.3 8 Sudeste 26 Este 0 -- -- 26
2018-05-23 13:00:00 25.5 8 Nordeste 15 Este 0 -- -- 41
2018-05-23 12:00:00 24.4 8 Nordeste 14 Nordeste 0 -- -- 45
2018-05-23 11:00:00 22.5 8 Nordeste 17 Este 0 -- -- 49
2018-05-23 10:00:00 19.8 10 Nordeste 17 Nordeste 0 -- -- 58
2018-05-23 09:00:00 16.9 5 Nordeste 7 Este 0 -- -- 72
2018-05-23 08:00:00 14.1 3 Sudeste 6 Este 0 -- -- 82
2018-05-23 07:00:00 13.3 3 Este 9 Nordeste 0 -- -- 82
2018-05-23 06:00:00 14.1 3 Este 5 Nordeste 0 -- -- 78
2018-05-23 05:00:00 14.5 3 Este 8 Sudeste 0 -- -- 76
2018-05-23 04:00:00 15 2 Sudeste 8 Sur 0 -- -- 71
2018-05-23 03:00:00 16.3 4 Sudeste 6 Este 0 -- -- 66
2018-05-23 02:00:00 17 4 Este 5 Este 0 -- -- 62
2018-05-23 01:00:00 17.6 2 Nordeste 9 Oeste 0 -- -- 60
2018-05-23 00:00:00 19.1 2 Sudoeste 10 Oeste 0 -- -- 53
2018-05-22 23:00:00 20.4 9 Oeste 13 Oeste 0 -- -- 48
2018-05-22 22:00:00 22.4 9 Oeste 14 Oeste 0 -- -- 43
2018-05-22 21:00:00 25.3 9 Oeste 17 Oeste 0 -- -- 33
2018-05-22 20:00:00 26.5 8 Oeste 14 Noroeste 0 -- -- 28
2018-05-22 19:00:00 27.7 7 Oeste 21 Sudoeste 0 -- -- 25
2018-05-22 18:00:00 27.4 8 Oeste 22 Oeste 0 -- -- 26
2018-05-22 17:00:00 26.7 10 Noroeste 20 Oeste 0 -- -- 36
2018-05-22 16:00:00 25.7 8 Oeste 18 Noroeste 0 -- -- 42
2018-05-22 15:00:00 24.1 8 Oeste 16 Oeste 0 -- -- 51
2018-05-22 14:00:00 22.3 6 Noroeste 17 Noroeste 0 -- -- 58
2018-05-22 13:00:00 21.2 8 Noroeste 21 Noroeste 0 -- -- 64
2018-05-22 12:00:00 19.4 8 Norte 15 Norte 0 -- -- 68
2018-05-22 11:00:00 17.5 5 Nordeste 13 Este 0 -- -- 75
2018-05-22 10:00:00 16.6 4 Sudoeste 10 Sudoeste 0 -- -- 79
2018-05-22 09:00:00 15.8 5 Sur 8 Sur 0 -- -- 85
2018-05-22 08:00:00 14.7 0 Calma 4 Oeste 0 -- -- 91
2018-05-22 07:00:00 14.2 2 Oeste 13 Sur 0.2 -- -- 93
2018-05-22 06:00:00 14.5 8 Sur 15 Sudoeste 0 -- -- 92
2018-05-22 05:00:00 14.5 10 Sur 17 Sur 0 -- -- 91
2018-05-22 04:00:00 14.9 8 Sur 15 Sur 0 -- -- 93
2018-05-22 03:00:00 14.8 8 Sudoeste 16 Sudoeste 0 -- -- 92
2018-05-22 02:00:00 15.3 9 Sudoeste 18 Sudoeste 0 -- -- 91
2018-05-22 01:00:00 15.9 9 Sudoeste 16 Sudoeste 0 -- -- 91
2018-05-22 00:00:00 16.3 2 Oeste 4 Oeste 0 -- -- 89
2018-05-21 23:00:00 16.8 3 Sudoeste 12 Sur 0 -- -- 87
2018-05-21 22:00:00 17.6 7 Sur 16 Sur 0 -- -- 85
2018-05-21 21:00:00 18.6 8 Sur 25 Sur 0.4 -- -- 81
2018-05-21 20:00:00 19.9 12 Sur 22 Oeste 0 -- -- 67
2018-05-21 19:00:00 20.9 3 Oeste 26 Noroeste 0 -- -- 52
2018-05-21 18:00:00 20.1 18 Noroeste 40 Norte 0 -- -- 56
2018-05-21 17:00:00 25.3 18 Oeste 31 Oeste 0 -- -- 39
2018-05-21 16:00:00 25.1 10 Oeste 26 Sudoeste 0 -- -- 45
2018-05-21 15:00:00 23.6 9 Oeste 21 Oeste 0 -- -- 52
2018-05-21 14:00:00 22.3 8 Oeste 18 Noroeste 0 -- -- 58
2018-05-21 13:00:00 20.2 3 Sudoeste 8 Oeste 0 -- -- 66
2018-05-21 12:00:00 18.7 0 Calma 7 Noroeste 0 -- -- 72
2018-05-21 11:00:00 17.5 3 Norte 7 Noroeste 0 -- -- 81
2018-05-21 10:00:00 15.6 3 Nordeste 8 Nordeste 0 -- -- 89
2018-05-21 09:00:00 14.4 3 Este 8 Este 0 -- -- 92
2018-05-21 08:00:00 14.2 4 Este 6 Este 0 -- -- 93
2018-05-21 07:00:00 13.2 4 Este 6 Este 0 -- -- 95
2018-05-21 06:00:00 13.1 0 Calma 6 Este 0 -- -- 94
2018-05-21 05:00:00 13.3 3 Este 6 Este 0 -- -- 94
2018-05-21 04:00:00 13.6 2 Este 3 Este 0 -- -- 93
2018-05-21 03:00:00 13.9 4 Este 5 Este 0 -- -- 93
2018-05-21 02:00:00 14.1 0 Calma 6 Este 0 -- -- 90
2018-05-21 01:00:00 14.5 3 Este 10 Sudeste 0 -- -- 88
2018-05-21 00:00:00 15 8 Sudeste 12 Sur 0 -- -- 90
2018-05-20 23:00:00 15.9 4 Este 7 Este 0 -- -- 85
2018-05-20 22:00:00 16.5 3 Noroeste 6 Este 0 -- -- 78
2018-05-20 21:00:00 17.1 6 Sudeste 35 Sur 0 -- -- 74
2018-05-20 20:00:00 18.3 19 Sur 36 Sur 0 -- -- 68
2018-05-20 19:00:00 20.3 3 Este 12 Noroeste 0.2 -- -- 67
2018-05-20 18:00:00 21.2 7 Oeste 19 Noroeste 0 -- -- 61
2018-05-20 17:00:00 22.8 11 Noroeste 24 Oeste 0 -- -- 56
2018-05-20 16:00:00 21.7 6 Noroeste 15 Noroeste 0 -- -- 58
2018-05-20 15:00:00 19.3 10 Noroeste 25 Norte 0 -- -- 68
2018-05-20 14:00:00 18.7 12 Noroeste 24 Noroeste 0 -- -- 73
2018-05-20 13:00:00 20.2 14 Oeste 25 Oeste 0.2 -- -- 70
2018-05-20 12:00:00 20.1 2 Este 10 Nordeste 0 -- -- 63
2018-05-20 11:00:00 20.1 5 Norte 14 Norte 0 -- -- 63
2018-05-20 10:00:00 18.3 4 Norte 10 Nordeste 0 -- -- 70
2018-05-20 09:00:00 15.5 4 Este 7 Este 0 -- -- 84
2018-05-20 08:00:00 13.6 4 Nordeste 6 Nordeste 0 -- -- 90
2018-05-20 07:00:00 13 3 Sudeste 6 Este 0 -- -- 92
2018-05-20 06:00:00 13 2 Sudeste 5 Sudeste 0 -- -- 91
2018-05-20 05:00:00 13.2 4 Este 5 Nordeste 0 -- -- 89
2018-05-20 04:00:00 14 0 Calma 6 Noroeste 0 -- -- 88
2018-05-20 03:00:00 14.5 3 Noroeste 12 Sur 0 -- -- 85
2018-05-20 02:00:00 15.3 5 Sur 9 Sudoeste 0 -- -- 81
2018-05-20 01:00:00 15.9 5 Este 12 Sur 0 -- -- 75
2018-05-20 00:00:00 17.4 4 Sudoeste 11 Sudoeste 0 -- -- 67
2018-05-19 23:00:00 18.5 4 Sudoeste 10 Oeste 0 -- -- 60
2018-05-19 22:00:00 19.4 9 Oeste 25 Oeste 0 -- -- 56
2018-05-19 21:00:00 21 14 Oeste 23 Oeste 0 -- -- 50
2018-05-19 20:00:00 21.7 11 Oeste 17 Oeste 0 -- -- 50
2018-05-19 19:00:00 21.1 11 Sudoeste 28 Sur 0 -- -- 52
2018-05-19 18:00:00 20.9 21 Sur 55 Este 0 -- -- 50
2018-05-19 17:00:00 25.6 26 Nordeste 38 Norte 0 -- -- 32
2018-05-19 16:00:00 25.3 23 Norte 43 Norte 0 -- -- 39
2018-05-19 15:00:00 27.1 10 Noroeste 17 Noroeste 0 -- -- 32
2018-05-19 14:00:00 26.2 7 Nordeste 18 Nordeste 0 -- -- 35
2018-05-19 13:00:00 25.4 7 Norte 13 Norte 0 -- -- 36
2018-05-19 12:00:00 23.9 7 Nordeste 15 Nordeste 0 -- -- 40
2018-05-19 11:00:00 21.9 8 Este 14 Este 0 -- -- 49
2018-05-19 10:00:00 20.5 6 Nordeste 12 Este 0 -- -- 57
2018-05-19 09:00:00 17 4 Nordeste 8 Nordeste 0 -- -- 75
2018-05-19 08:00:00 15.8 3 Nordeste 8 Nordeste 0 -- -- 78
2018-05-19 07:00:00 15.8 5 Este 13 Este 0 -- -- 75
2018-05-19 06:00:00 16.3 4 Este 8 Sudeste 0 -- -- 70
2018-05-19 05:00:00 15.9 5 Este 10 Nordeste 0 -- -- 70
2018-05-19 04:00:00 16 4 Este 10 Nordeste 0 -- -- 71
2018-05-19 03:00:00 16.4 3 Este 11 Este 0 -- -- 73
2018-05-19 02:00:00 16.6 4 Este 9 Norte 0 -- -- 72
2018-05-19 01:00:00 17.5 3 Nordeste 10 Sudeste 0 -- -- 71
2018-05-19 00:00:00 18.6 4 Oeste 10 Sudoeste 0 -- -- 65
2018-05-18 23:00:00 20.3 9 Sudoeste 18 Sudoeste 0 -- -- 43
2018-05-18 22:00:00 21.3 9 Sur 21 Sudoeste 0 -- -- 43
2018-05-18 21:00:00 22.8 14 Sur 24 Sur 0 -- -- 36
2018-05-18 20:00:00 23.8 5 Este 19 Sudeste 0 -- -- 44
2018-05-18 19:00:00 24 15 Sudeste 28 Sur 0 -- -- 40
2018-05-18 18:00:00 23.8 17 Sudeste 30 Sudeste 0.2 -- -- 44
2018-05-18 17:00:00 20.5 23 Este 40 Este 0.6 -- -- 67
2018-05-18 16:00:00 25.1 12 Este 22 Este 0 -- -- 37
2018-05-18 15:00:00 25.8 9 Este 22 Este 0 -- -- 33
2018-05-18 14:00:00 25.5 9 Este 24 Sudeste 0 -- -- 35
2018-05-18 13:00:00 24.4 6 Este 17 Sudeste 0 -- -- 37
2018-05-18 12:00:00 23 5 Noroeste 12 Noroeste 0 -- -- 46
2018-05-18 11:00:00 21 4 Este 12 Este 0 -- -- 52
2018-05-18 10:00:00 18 6 Nordeste 12 Nordeste 0 -- -- 65
2018-05-18 09:00:00 17.4 8 Nordeste 14 Nordeste 0 -- -- 67
2018-05-18 08:00:00 14.8 2 Este 6 Este 0 -- -- 78
2018-05-18 07:00:00 14.3 3 Nordeste 12 Sur 0 -- -- 77
2018-05-18 06:00:00 14.9 9 Sur 14 Sur 0 -- -- 75
2018-05-18 05:00:00 15.2 10 Sur 16 Sur 0 -- -- 73
2018-05-18 04:00:00 15.9 9 Sur 14 Sur 0 -- -- 71
2018-05-18 03:00:00 16.6 9 Sur 17 Sur 0 -- -- 68
2018-05-18 02:00:00 17.3 11 Sur 22 Sur 0 -- -- 64
2018-05-18 01:00:00 18.1 12 Sur 27 Sur 0 -- -- 61
2018-05-18 00:00:00 19.6 12 Sur 31 Sudoeste 0 -- -- 55
2018-05-17 23:00:00 21 14 Sudoeste 37 Sudoeste 0 -- -- 53
2018-05-17 22:00:00 22.7 23 Oeste 37 Oeste 0 -- -- 47
2018-05-17 21:00:00 26.9 6 Sudoeste 24 Sudoeste 0 -- -- 26
2018-05-17 20:00:00 29.5 5 Sudoeste 12 Oeste 0 -- -- 20
2018-05-17 19:00:00 29.1 5 Sudoeste 17 Sudeste 0 -- -- 21
2018-05-17 18:00:00 28.9 10 Sudeste 21 Sudeste 0 -- -- 20
2018-05-17 17:00:00 28.7 9 Sudeste 33 Nordeste 0 -- -- 22
2018-05-17 16:00:00 27.9 6 Oeste 21 Nordeste 0 -- -- 24
2018-05-17 15:00:00 26.6 8 Norte 21 Sudeste 0 -- -- 24
2018-05-17 14:00:00 25.8 13 Este 30 Este 0 -- -- 26
2018-05-17 13:00:00 24.9 11 Nordeste 26 Nordeste 0 -- -- 29
2018-05-17 12:00:00 23.1 10 Nordeste 18 Este 0 -- -- 37
2018-05-17 11:00:00 21.4 10 Nordeste 15 Nordeste 0 -- -- 41
2018-05-17 10:00:00 19.1 7 Este 13 Nordeste 0 -- -- 47
2018-05-17 09:00:00 16.9 6 Nordeste 10 Este 0 -- -- 53
2018-05-17 08:00:00 13.9 7 Sudeste 11 Sudeste 0 -- -- 65
2018-05-17 07:00:00 12.7 4 Este 12 Este 0 -- -- 69
2018-05-17 06:00:00 13.4 5 Este 9 Norte 0 -- -- 64
2018-05-17 05:00:00 15.2 4 Nordeste 8 Sur 0 -- -- 54
2018-05-17 04:00:00 16.5 3 Sudoeste 23 Sur 0 -- -- 49
2018-05-17 03:00:00 17.2 17 Sur 29 Sur 0 -- -- 46
2018-05-17 02:00:00 16.8 12 Sur 18 Sur 0 -- -- 47
2018-05-17 01:00:00 17.2 8 Sudeste 13 Sudeste 0 -- -- 49
2018-05-17 00:00:00 18.7 6 Sur 18 Sudeste 0 -- -- 45
2018-05-16 23:00:00 19.9 17 Sur 29 Sur 0 -- -- 41
2018-05-16 22:00:00 22.2 15 Sur 26 Sur 0 -- -- 37
2018-05-16 21:00:00 27.8 7 Este 20 Nordeste 0 -- -- 24
2018-05-16 20:00:00 29.1 12 Nordeste 30 Nordeste 0 -- -- 20
2018-05-16 19:00:00 29.5 15 Nordeste 29 Este 0 -- -- 20
2018-05-16 18:00:00 29.5 16 Nordeste 30 Nordeste 0 -- -- 21
2018-05-16 17:00:00 29 15 Nordeste 30 Este 0 -- -- 26
2018-05-16 16:00:00 28.5 13 Sudeste 25 Sudeste 0 -- -- 25
2018-05-16 15:00:00 27.8 9 Este 25 Este 0 -- -- 26
2018-05-16 14:00:00 26.5 10 Nordeste 19 Este 0 -- -- 31
2018-05-16 13:00:00 25 9 Este 24 Nordeste 0 -- -- 33
2018-05-16 12:00:00 24 8 Este 17 Nordeste 0 -- -- 34
2018-05-16 11:00:00 22.2 8 Sudeste 18 Este 0 -- -- 37
2018-05-16 10:00:00 19.6 6 Este 14 Este 0 -- -- 45
2018-05-16 09:00:00 16.2 7 Nordeste 13 Nordeste 0 -- -- 57
2018-05-16 08:00:00 13.3 3 Este 9 Este 0 -- -- 67
2018-05-16 07:00:00 12.6 5 Este 8 Nordeste 0 -- -- 67
2018-05-16 06:00:00 13 3 Este 8 Este 0 -- -- 66
2018-05-16 05:00:00 14.4 5 Este 8 Este 0 -- -- 59
2018-05-16 04:00:00 14.7 5 Este 9 Este 0 -- -- 55
2018-05-16 03:00:00 15.3 4 Este 6 Nordeste 0 -- -- 52
2018-05-16 02:00:00 16.1 4 Este 8 Sudeste 0 -- -- 52
2018-05-16 01:00:00 18 5 Sudeste 18 Sur 0 -- -- 46
2018-05-16 00:00:00 19.8 4 Norte 6 Norte 0 -- -- 38
2018-05-15 23:00:00 21 0 Calma 10 Norte 0 -- -- 34
2018-05-15 22:00:00 23.4 9 Nordeste 15 Norte 0 -- -- 28
2018-05-15 21:00:00 26.2 11 Nordeste 22 Nordeste 0 -- -- 24
2018-05-15 20:00:00 29.7 4 Oeste 12 Sudoeste 0 -- -- 21
2018-05-15 19:00:00 29 6 Sur 16 Oeste 0 -- -- 21
2018-05-15 18:00:00 28.4 5 Sudeste 17 Este 0 -- -- 21
2018-05-15 17:00:00 28.1 10 Sudeste 21 Sudeste 0 -- -- 22
2018-05-15 16:00:00 27.3 4 Norte 23 Este 0 -- -- 21
2018-05-15 15:00:00 26.3 7 Norte 24 Este 0 -- -- 22
2018-05-15 14:00:00 25.7 12 Este 29 Este 0 -- -- 25
2018-05-15 13:00:00 24.9 17 Nordeste 36 Nordeste 0 -- -- 26
2018-05-15 12:00:00 23.2 22 Este 34 Este 0 -- -- 29
2018-05-15 11:00:00 21.6 18 Este 34 Nordeste 0 -- -- 33
2018-05-15 10:00:00 18.9 15 Nordeste 24 Este 0 -- -- 42
2018-05-15 09:00:00 16.5 14 Nordeste 22 Este 0 -- -- 50
2018-05-15 08:00:00 13.3 7 Este 12 Este 0 -- -- 64
2018-05-15 07:00:00 12.7 8 Este 13 Este 0 -- -- 65
2018-05-15 06:00:00 13.1 9 Este 14 Este 0 -- -- 64
2018-05-15 05:00:00 13.4 8 Este 15 Nordeste 0 -- -- 63
2018-05-15 04:00:00 14.6 7 Este 12 Este 0 -- -- 59
2018-05-15 03:00:00 15.1 9 Este 13 Este 0 -- -- 57
2018-05-15 02:00:00 16 6 Este 9 Este 0 -- -- 54
2018-05-15 01:00:00 17.2 6 Este 14 Nordeste 0 -- -- 49
2018-05-15 00:00:00 17.9 9 Este 12 Nordeste 0 -- -- 47
2018-05-14 23:00:00 19.4 6 Nordeste 13 Nordeste 0 -- -- 44
2018-05-14 22:00:00 21.8 6 Nordeste 13 Nordeste 0 -- -- 37
2018-05-14 21:00:00 23.9 12 Nordeste 27 Norte 0 -- -- 31
2018-05-14 20:00:00 25.7 15 Norte 25 Nordeste 0 -- -- 28
2018-05-14 19:00:00 26.1 11 Este 20 Nordeste 0 -- -- 27
2018-05-14 18:00:00 27 10 Norte 26 Noroeste 0 -- -- 25
2018-05-14 17:00:00 26.4 6 Norte 14 Noroeste 0 -- -- 27
2018-05-14 16:00:00 25.4 5 Sur 18 Noroeste 0 -- -- 28
2018-05-14 15:00:00 24.4 7 Norte 21 Norte 0 -- -- 29
2018-05-14 14:00:00 23 8 Norte 23 Nordeste 0 -- -- 30
2018-05-14 13:00:00 22.1 11 Nordeste 23 Norte 0 -- -- 27
2018-05-14 12:00:00 20.6 12 Este 27 Nordeste 0 -- -- 33
2018-05-14 11:00:00 18.9 13 Nordeste 21 Nordeste 0 -- -- 39
2018-05-14 10:00:00 16.7 9 Nordeste 15 Nordeste 0 -- -- 45
2018-05-14 09:00:00 14.5 5 Nordeste 9 Nordeste 0 -- -- 56
2018-05-14 08:00:00 11.5 2 Nordeste 6 Este 0 -- -- 62
2018-05-14 07:00:00 10.1 3 Nordeste 4 Este 0 -- -- 65
2018-05-14 06:00:00 11.5 2 Nordeste 10 Noroeste 0 -- -- 58
2018-05-14 05:00:00 13 4 Noroeste 8 Noroeste 0 -- -- 51
2018-05-14 04:00:00 13.6 5 Noroeste 9 Norte 0 -- -- 49
2018-05-14 03:00:00 14 4 Norte 8 Norte 0 -- -- 46
2018-05-14 02:00:00 14.8 4 Noroeste 11 Norte 0 -- -- 42
2018-05-14 01:00:00 15.2 6 Noroeste 10 Noroeste 0 -- -- 38
2018-05-11 20:00:00 -- -- -- -- -- -- -- -- --
2018-05-11 19:00:00 24.5 20 Oeste 34 Oeste 0 -- -- 43
2018-05-11 18:00:00 24.9 19 Oeste 33 Oeste 0 -- -- 45
2018-05-11 17:00:00 25.1 18 Oeste 33 Oeste 0 -- -- 44
2018-05-11 16:00:00 25.3 16 Oeste 30 Oeste 0 -- -- 45
2018-05-11 15:00:00 24.3 14 Oeste 28 Oeste 0 -- -- 46
2018-05-11 14:00:00 23.5 8 Oeste 19 Oeste 0 -- -- 50
2018-05-11 13:00:00 22 7 Noroeste 19 Oeste 0 -- -- 56
2018-05-11 12:00:00 20.7 4 Norte 12 Oeste 0 -- -- 60
2018-05-11 11:00:00 18.4 5 Norte 9 Norte 0 -- -- 66
2018-05-11 10:00:00 16.1 4 Noroeste 6 Nordeste 0 -- -- 77
2018-05-11 09:00:00 14.3 0 Calma 4 Este 0 -- -- 84
2018-05-11 08:00:00 11.4 2 Este 4 Este 0 -- -- 92
2018-05-11 07:00:00 11 0 Calma 2 Este 0 -- -- 92
2018-05-11 06:00:00 11.6 0 Calma -- -- 0 -- -- 91
2018-05-11 05:00:00 12.2 3 Sudoeste 4 Sudoeste 0 -- -- 91
2018-05-11 04:00:00 12.6 2 Nordeste 10 Sudoeste 0 -- -- 88
2018-05-11 03:00:00 13.5 7 Sudoeste 10 Sudoeste 0 -- -- 85
2018-05-11 02:00:00 14 8 Sudoeste 11 Sudoeste 0 -- -- 83
2018-05-11 01:00:00 15 6 Sudoeste 15 Oeste 0 -- -- 76
2018-05-11 00:00:00 15.9 12 Oeste 18 Oeste 0 -- -- 73
2018-05-10 23:00:00 17.4 8 Sudoeste 18 Oeste 0 -- -- 66
2018-05-10 22:00:00 19 8 Sudoeste 20 Oeste 0 -- -- 59
2018-05-10 21:00:00 21.5 11 Oeste 23 Oeste 0 -- -- 46
2018-05-10 20:00:00 23.8 12 Oeste 22 Oeste 0 -- -- 41
2018-05-10 19:00:00 24.4 10 Oeste 24 Oeste 0 -- -- 41
2018-05-10 18:00:00 24.4 9 Oeste 27 Sudoeste 0 -- -- 41
2018-05-10 17:00:00 24.8 11 Oeste 27 Oeste 0 -- -- 41
2018-05-10 16:00:00 23.6 13 Oeste 21 Oeste 0 -- -- 46
2018-05-10 15:00:00 23.5 8 Oeste 22 Oeste 0 -- -- 53
2018-05-10 14:00:00 21.8 10 Oeste 21 Oeste 0 -- -- 56
2018-05-10 13:00:00 21.3 6 Sur 12 Sur 0 -- -- 58
2018-05-10 12:00:00 19.7 7 Noroeste 12 Norte 0 -- -- 69
2018-05-10 11:00:00 18.5 4 Sudoeste 9 Oeste 0 -- -- 75
2018-05-10 10:00:00 16.9 4 Sudoeste 13 Sudoeste 0 -- -- 83
2018-05-10 09:00:00 16 4 Sudoeste 12 Oeste 0 -- -- 87
2018-05-10 08:00:00 15.6 8 Oeste 15 Oeste 0 -- -- 88
2018-05-10 07:00:00 15.7 5 Sudoeste 15 Oeste 0 -- -- 86
2018-05-10 06:00:00 15.9 8 Oeste 15 Oeste 0 -- -- 85
2018-05-10 05:00:00 15.9 9 Oeste 16 Sudoeste 0 -- -- 86
2018-05-10 04:00:00 15.8 9 Sudoeste 22 Sudoeste 0 -- -- 86
2018-05-10 03:00:00 16.1 9 Sudoeste 19 Oeste 0 -- -- 87
2018-05-10 02:00:00 16.3 8 Sudoeste 16 Sudoeste 0 -- -- 86
2018-05-10 01:00:00 16.3 9 Oeste 19 Oeste 0 -- -- 85
2018-05-10 00:00:00 17.3 7 Sudoeste 26 Sudoeste 0 -- -- 78
2018-05-09 23:00:00 18.1 12 Sudoeste 30 Sudoeste 0 -- -- 77
2018-05-09 22:00:00 19 12 Sudoeste 23 Sudoeste 0 -- -- 77
2018-05-09 21:00:00 19.3 7 Sudoeste 22 Sudoeste 0 -- -- 81
2018-05-09 20:00:00 19.7 11 Sudoeste 24 Oeste 0 -- -- 81
2018-05-09 19:00:00 19.1 13 Oeste 25 Oeste 0 -- -- 82
2018-05-09 18:00:00 19.2 15 Sudoeste 31 Oeste 0 -- -- 81
2018-05-09 17:00:00 20.8 16 Oeste 28 Oeste 0 -- -- 72
2018-05-09 16:00:00 20.5 19 Oeste 27 Oeste 0 -- -- 71
2018-05-09 15:00:00 20 13 Oeste 25 Oeste 0 -- -- 73
2018-05-09 14:00:00 19.1 11 Oeste 21 Oeste 0 -- -- 75
2018-05-09 13:00:00 18.7 9 Sudoeste 17 Oeste 0 -- -- 78
2018-05-09 12:00:00 18.2 7 Sudoeste 18 Sudoeste 0 -- -- 80
2018-05-09 11:00:00 17.4 11 Sudoeste 22 Sudoeste 0 -- -- 85
2018-05-09 10:00:00 16.4 10 Sudoeste 19 Sudoeste 0 -- -- 91
2018-05-09 09:00:00 15.6 8 Sudoeste 18 Sudoeste 0 -- -- 95
2018-05-09 08:00:00 15.7 9 Sudoeste 18 Oeste 0 -- -- 94
2018-05-09 07:00:00 15.9 7 Oeste 15 Sudoeste 0 -- -- 95
2018-05-09 06:00:00 16.2 9 Oeste 22 Oeste 0 -- -- 93
2018-05-09 05:00:00 16.6 7 Oeste 16 Sudoeste 0 -- -- 89
2018-05-09 04:00:00 16.7 8 Oeste 18 Oeste 0 -- -- 87
2018-05-09 03:00:00 16.7 8 Sudoeste 17 Sudoeste 0 -- -- 85
2018-05-09 02:00:00 16.9 6 Oeste 13 Oeste 0 -- -- 83
2018-05-09 01:00:00 17.2 3 Noroeste 13 Sudoeste 0 -- -- 80
2018-05-09 00:00:00 17.9 6 Sudoeste 10 Sur 0 -- -- 74
2018-05-08 23:00:00 18.4 2 Oeste 17 Oeste 0 -- -- 71
2018-05-08 22:00:00 19.6 9 Noroeste 20 Noroeste 0 -- -- 67
2018-05-08 21:00:00 20.1 5 Noroeste 17 Noroeste 0 -- -- 66
2018-05-08 20:00:00 21 8 Noroeste 22 Oeste 0 -- -- 63
2018-05-08 19:00:00 22.3 9 Noroeste 16 Oeste 0 -- -- 64
2018-05-08 18:00:00 21.8 9 Noroeste 19 Oeste 0 -- -- 69
2018-05-08 17:00:00 23.7 12 Oeste 21 Oeste 0 -- -- 57
2018-05-08 16:00:00 24.5 6 Oeste 19 Oeste 0 -- -- 49
2018-05-08 15:00:00 26.4 8 Oeste 24 Noroeste 0 -- -- 43
2018-05-08 14:00:00 24.8 7 Oeste 21 Oeste 0 -- -- 51
2018-05-08 13:00:00 23.3 6 Sudoeste 15 Oeste 0 -- -- 55
2018-05-08 12:00:00 21.8 6 Oeste 13 Oeste 0 -- -- 61
2018-05-08 11:00:00 19.8 5 Sur 12 Sudeste 0 -- -- 67
2018-05-08 10:00:00 17.2 4 Noroeste 10 Norte 0 -- -- 80
2018-05-08 09:00:00 15.8 3 Norte 5 Norte 0 -- -- 86
2018-05-08 08:00:00 13.7 2 Sudeste 4 Noroeste 0 -- -- 93
2018-05-08 07:00:00 13.7 0 Calma 7 Sur 0 -- -- 91
2018-05-08 06:00:00 14.1 6 Sur 9 Sur 0 -- -- 90
2018-05-08 05:00:00 14.4 5 Sur 9 Sudoeste 0 -- -- 86
2018-05-08 04:00:00 15.2 3 Oeste 8 Oeste 0 -- -- 80
2018-05-08 03:00:00 16 5 Oeste 16 Sudoeste 0 -- -- 77
2018-05-08 02:00:00 17.1 9 Sudoeste 20 Sudoeste 0 -- -- 72
2018-05-08 01:00:00 17.8 8 Sudoeste 17 Sudoeste 0 -- -- 70
2018-05-08 00:00:00 19 8 Sudoeste 17 Sudoeste 0 -- -- 64
2018-05-07 23:00:00 20.5 7 Noroeste 14 Noroeste 0 -- -- 55
2018-05-07 22:00:00 21.4 7 Noroeste 14 Noroeste 0 -- -- 53
2018-05-07 21:00:00 23.2 10 Norte 26 Norte 0 -- -- 50
2018-05-07 20:00:00 25.9 8 Noroeste 18 Oeste 0 -- -- 36
2018-05-07 19:00:00 28 8 Noroeste 14 Noroeste 0 -- -- 30
2018-05-07 18:00:00 27.4 6 Oeste 20 Noroeste 0 -- -- 30
2018-05-07 17:00:00 27.9 8 Sudoeste 25 Sudoeste 0 -- -- 31
2018-05-07 16:00:00 27 9 Sudoeste 18 Sur 0 -- -- 35
2018-05-07 15:00:00 26 7 Sudoeste 19 Sur 0 -- -- 38
2018-05-07 14:00:00 24.9 4 Norte 13 Sudoeste 0 -- -- 44
2018-05-07 13:00:00 23.7 4 Este 13 Sudoeste 0 -- -- 54
2018-05-07 12:00:00 22 5 Este 14 Sudeste 0 -- -- 62
2018-05-07 11:00:00 20.2 5 Este 10 Nordeste 0 -- -- 66
2018-05-07 10:00:00 17.5 7 Nordeste 12 Nordeste 0 -- -- 79
2018-05-07 09:00:00 15.2 4 Este 9 Este 0 -- -- 86
2018-05-07 08:00:00 12.9 4 Este 8 Este 0 -- -- 94
2018-05-07 07:00:00 12.6 4 Este 8 Nordeste 0 -- -- 92
2018-05-07 06:00:00 13 5 Este 10 Este 0 -- -- 93
2018-05-07 05:00:00 13.3 4 Este 9 Este 0 -- -- 93
2018-05-07 04:00:00 13.5 5 Este 7 Este 0 -- -- 92
2018-05-07 03:00:00 14.3 5 Este 9 Nordeste 0 -- -- 88
2018-05-07 02:00:00 15.4 4 Nordeste 8 Este 0 -- -- 87
2018-05-07 01:00:00 15.8 5 Este 8 Este 0 -- -- 86
2018-05-07 00:00:00 16.6 3 Este 13 Sur 0 -- -- 84
2018-05-06 23:00:00 17 8 Sur 12 Sur 0 -- -- 81
2018-05-06 22:00:00 17.9 3 Este 25 Este 0 -- -- 78
2018-05-06 21:00:00 18.4 16 Nordeste 33 Este 0.2 -- -- 76
2018-05-06 20:00:00 19.4 12 Sur 42 Sudeste 0 -- -- 63
2018-05-06 19:00:00 23.7 12 Sur 32 Norte 0 -- -- 49
2018-05-06 18:00:00 27.3 4 Sudoeste 13 Nordeste 0 -- -- 30
2018-05-06 17:00:00 26.6 8 Sudeste 14 Este 0 -- -- 33
2018-05-06 16:00:00 26 6 Noroeste 18 Norte 0 -- -- 39
2018-05-06 15:00:00 24 4 Sudeste 13 Nordeste 0 -- -- 49
2018-05-06 14:00:00 23.9 7 Este 14 Este 0 -- -- 48
2018-05-06 13:00:00 22.3 5 Nordeste 17 Sudeste 0 -- -- 52
2018-05-06 12:00:00 22.2 5 Sudeste 17 Este 0 -- -- 49
2018-05-06 11:00:00 20.4 6 Nordeste 12 Este 0 -- -- 51
2018-05-06 10:00:00 18.9 6 Este 14 Este 0 -- -- 53
2018-05-06 09:00:00 15.1 5 Este 9 Este 0 -- -- 74
2018-05-06 08:00:00 13.6 4 Este 9 Este 0 -- -- 83
2018-05-06 07:00:00 13.9 5 Este 8 Este 0 -- -- 77
2018-05-06 06:00:00 14 5 Sudeste 10 Sudeste 0 -- -- 72
2018-05-06 05:00:00 14.3 5 Sudeste 15 Sudeste 0 -- -- 70
2018-05-06 04:00:00 14.8 5 Sudeste 8 Sudeste 0 -- -- 73
2018-05-06 03:00:00 15.2 3 Este 8 Sur 0 -- -- 68
2018-05-06 02:00:00 17 3 Este 11 Este 0 -- -- 58
2018-05-06 01:00:00 17.6 5 Nordeste 13 Sur 0 -- -- 55
2018-05-06 00:00:00 18.5 6 Sur 19 Sur 0 -- -- 53
2018-05-05 23:00:00 20.5 10 Sur 21 Sur 0 -- -- 48
2018-05-05 22:00:00 22.2 4 Oeste 6 Oeste 0 -- -- 39
2018-05-05 21:00:00 25.9 4 Noroeste 7 Noroeste 0 -- -- 29
2018-05-05 20:00:00 27.5 0 Calma 10 Este 0 -- -- 26
2018-05-05 19:00:00 27.2 5 Norte 15 Norte 0 -- -- 26
2018-05-05 18:00:00 27.7 6 Oeste 19 Nordeste 0 -- -- 26
2018-05-05 17:00:00 27.3 4 Sudeste 15 Sudoeste 0 -- -- 29
2018-05-05 16:00:00 26 5 Norte 17 Este 0 -- -- 31
2018-05-05 15:00:00 25.3 6 Sur 16 Este 0 -- -- 33
2018-05-05 14:00:00 24.3 5 Sur 15 Sudeste 0 -- -- 37
2018-05-05 13:00:00 22.6 5 Nordeste 9 Sudoeste 0 -- -- 47
2018-05-05 12:00:00 20.6 3 Norte 10 Nordeste 0 -- -- 60
2018-05-05 11:00:00 18.4 3 Norte 13 Nordeste 0 -- -- 70
2018-05-05 10:00:00 15.9 5 Nordeste 12 Nordeste 0 -- -- 78
2018-05-05 09:00:00 13.5 6 Este 11 Nordeste 0 -- -- 86
2018-05-05 08:00:00 10.7 4 Nordeste 9 Nordeste 0 -- -- 94
2018-05-05 07:00:00 10.5 5 Este 8 Este 0 -- -- 94
2018-05-05 06:00:00 10.8 2 Nordeste 5 Este 0 -- -- 93
2018-05-05 05:00:00 11.5 4 Sudeste 7 Sudeste 0 -- -- 92
2018-05-05 04:00:00 11.9 0 Calma 4 Este 0 -- -- 91
2018-05-05 03:00:00 12.4 3 Oeste 5 Oeste 0 -- -- 88
2018-05-05 02:00:00 13.1 3 Noroeste 14 Sudoeste 0 -- -- 84
2018-05-05 01:00:00 13.8 8 Sudoeste 13 Sur 0 -- -- 83
2018-05-05 00:00:00 14.5 9 Sudoeste 15 Sudoeste 0 -- -- 78
2018-05-04 23:00:00 15.4 7 Oeste 14 Sudoeste 0 -- -- 73
2018-05-04 22:00:00 16.8 11 Oeste 23 Sudoeste 0 -- -- 65
2018-05-04 21:00:00 19.3 14 Sudoeste 34 Sudoeste 0 -- -- 51
2018-05-04 20:00:00 22 18 Sudoeste 31 Sudoeste 0 -- -- 43
2018-05-04 19:00:00 23.4 4 Este 13 Nordeste 0 -- -- 32
2018-05-04 18:00:00 25 8 Este 15 Sudoeste 0 -- -- 31
2018-05-04 17:00:00 24.7 8 Noroeste 21 Noroeste 0 -- -- 30
2018-05-04 16:00:00 23.7 8 Este 17 Nordeste 0 -- -- 32
2018-05-04 15:00:00 23.5 4 Noroeste 18 Este 0 -- -- 32
2018-05-04 14:00:00 22.2 9 Nordeste 26 Nordeste 0 -- -- 33
2018-05-04 13:00:00 20.8 14 Este 31 Este 0 -- -- 36
2018-05-04 12:00:00 19.6 18 Este 32 Este 0 -- -- 39
2018-05-04 11:00:00 18.3 12 Nordeste 20 Este 0 -- -- 47
2018-05-04 10:00:00 16 11 Nordeste 19 Nordeste 0 -- -- 65
2018-05-04 09:00:00 13.3 5 Nordeste 9 Este 0 -- -- 88
2018-05-04 08:00:00 10.8 5 Este 9 Este 0 -- -- 94
2018-05-04 07:00:00 10.5 3 Este 7 Este 0 -- -- 92
2018-05-04 06:00:00 11.2 3 Este 7 Este 0 -- -- 89
2018-05-04 05:00:00 11.6 4 Este 6 Este 0 -- -- 90
2018-05-04 04:00:00 12.4 3 Sudoeste 8 Sudoeste 0 -- -- 88
2018-05-04 03:00:00 13.1 7 Oeste 11 Sudoeste 0 -- -- 84
2018-05-04 02:00:00 14.4 10 Sudoeste 13 Sudoeste 0 -- -- 78
2018-05-04 01:00:00 16 5 Sudoeste 10 Sudoeste 0 -- -- 73
2018-05-04 00:00:00 17.2 7 Sur 10 Sur 0 -- -- 64
2018-05-03 23:00:00 18 0 Calma 8 Sudeste 0 -- -- 61
2018-05-03 22:00:00 19.1 6 Sudeste 21 Este 0 -- -- 56
2018-05-03 21:00:00 21.6 6 Noroeste 23 Noroeste 0 -- -- 44
2018-05-03 20:00:00 23.2 11 Noroeste 20 Noroeste 0 -- -- 37
2018-05-03 19:00:00 23.3 10 Oeste 25 Oeste 0 -- -- 38
2018-05-03 18:00:00 23.5 15 Oeste 27 Oeste 0 -- -- 38
2018-05-03 17:00:00 24.7 10 Oeste 22 Noroeste 0 -- -- 37
2018-05-03 16:00:00 23.5 4 Sudeste 13 Noroeste 0 -- -- 39
2018-05-03 15:00:00 22.3 3 Sur 15 Noroeste 0 -- -- 44
2018-05-03 14:00:00 21 4 Este 14 Norte 0 -- -- 43
2018-05-03 13:00:00 19.5 5 Noroeste 12 Norte 0 -- -- 53
2018-05-03 12:00:00 17.9 5 Sur 12 Nordeste 0 -- -- 54
2018-05-03 11:00:00 16.3 3 Noroeste 9 Noroeste 0 -- -- 61
2018-05-03 10:00:00 13.5 5 Norte 9 Norte 0 -- -- 73
2018-05-03 09:00:00 11.2 4 Nordeste 6 Norte 0 -- -- 82
2018-05-03 08:00:00 8.3 4 Este 6 Este 0 -- -- 92
2018-05-03 07:00:00 8.4 2 Norte 4 Nordeste 0 -- -- 89
2018-05-03 06:00:00 9.2 0 Calma 14 Norte 0 -- -- 85
2018-05-03 05:00:00 9.6 5 Norte 11 Norte 0 -- -- 85
2018-05-03 04:00:00 9.2 0 Calma 5 Sur 0 -- -- 86
2018-05-03 03:00:00 10 3 Sudeste 6 Oeste 0 -- -- 81
2018-05-03 02:00:00 10.9 2 Oeste 10 Sudoeste 0 -- -- 74
2018-05-03 01:00:00 12.4 5 Sudoeste 15 Sudoeste 0 -- -- 66
2018-05-03 00:00:00 13.3 8 Sudoeste 17 Oeste 0 -- -- 57
2018-05-02 23:00:00 14.9 12 Oeste 24 Oeste 0 -- -- 47
2018-05-02 22:00:00 16.5 10 Sudoeste 20 Sudoeste 0 -- -- 49
2018-05-02 21:00:00 17.2 5 Sudoeste 21 Oeste 0 -- -- 48
2018-05-02 20:00:00 19.3 15 Oeste 24 Oeste 0 -- -- 39
2018-05-02 19:00:00 20.8 15 Oeste 27 Oeste 0 -- -- 34
2018-05-02 18:00:00 21.1 8 Oeste 27 Oeste 0 -- -- 35
2018-05-02 17:00:00 21.1 10 Oeste 25 Oeste 0 -- -- 32
2018-05-02 16:00:00 20.5 8 Oeste 24 Oeste 0 -- -- 34
2018-05-02 15:00:00 18.9 8 Sudoeste 17 Oeste 0 -- -- 40
2018-05-02 14:00:00 18 9 Noroeste 16 Noroeste 0 -- -- 48
2018-05-02 13:00:00 16.6 4 Este 12 Nordeste 0 -- -- 56
2018-05-02 12:00:00 14.4 4 Este 11 Este 0 -- -- 74
2018-05-02 11:00:00 12.2 8 Nordeste 13 Nordeste 0 -- -- 84
2018-05-02 10:00:00 11.1 6 Nordeste 14 Este 0 -- -- 86
2018-05-02 09:00:00 8.5 5 Este 9 Nordeste 0 -- -- 95
2018-05-02 08:00:00 6.2 4 Este 7 Nordeste 0 -- -- 97
2018-05-02 07:00:00 6 3 Este 6 Este 0 -- -- 96
2018-05-02 06:00:00 6.5 2 Nordeste 4 Este 0 -- -- 95
2018-05-02 05:00:00 6.9 5 Este 7 Este 0 -- -- 95
2018-05-02 04:00:00 7.2 3 Este 4 Sudeste 0 -- -- 93
2018-05-02 03:00:00 8 0 Calma 10 Sudoeste 0 -- -- 90
2018-05-02 02:00:00 8.6 3 Sudoeste 9 Sudoeste 0 -- -- 89
2018-05-02 01:00:00 9.1 4 Sudoeste 10 Oeste 0 -- -- 87
2018-05-02 00:00:00 10.2 4 Oeste 8 Sudoeste 0 -- -- 80
2018-05-01 23:00:00 11 3 Sudoeste 8 Sudoeste 0 -- -- 78
2018-05-01 22:00:00 12.6 3 Sudoeste 8 Oeste 0 -- -- 69
2018-05-01 21:00:00 15.8 3 Sudoeste 8 Sudoeste 0 -- -- 55
2018-05-01 20:00:00 16.6 3 Noroeste 13 Oeste 0 -- -- 52
2018-05-01 19:00:00 16 6 Noroeste 18 Noroeste 0 -- -- 50
2018-05-01 18:00:00 15.3 10 Noroeste 19 Oeste 0 -- -- 59
2018-05-01 17:00:00 14.3 9 Noroeste 19 Oeste 0 -- -- 60
2018-05-01 16:00:00 11.5 4 Norte 21 Nordeste 1.2 -- -- 78
2018-05-01 15:00:00 10.4 16 Nordeste 36 Oeste 1 -- -- 88
2018-05-01 14:00:00 13 16 Noroeste 28 Noroeste 0.2 -- -- 78
2018-05-01 13:00:00 14.2 9 Sudoeste 15 Sudoeste 0 -- -- 75
2018-05-01 12:00:00 10.4 5 Este 16 Oeste 1.4 -- -- 94
2018-05-01 11:00:00 10.9 7 Noroeste 12 Noroeste 0 -- -- 82
2018-05-01 10:00:00 10.2 2 Noroeste 5 Noroeste 0 -- -- 86
2018-05-01 09:00:00 9 3 Nordeste 6 Este 0 -- -- 92
2018-05-01 08:00:00 7.5 3 Este 5 Este 0 -- -- 96
2018-05-01 07:00:00 7 0 Calma 9 Sudoeste 0 -- -- 94
2018-05-01 06:00:00 7.9 6 Sudoeste 11 Sur 0 -- -- 95
2018-05-01 05:00:00 7.8 6 Sudoeste 8 Sudoeste 0 -- -- 93
2018-05-01 04:00:00 8.6 3 Noroeste 11 Sur 0 -- -- 91
2018-05-01 03:00:00 9.2 6 Sudoeste 11 Sudoeste 0 -- -- 90
2018-05-01 02:00:00 9.8 6 Sudoeste 10 Sudoeste 0 -- -- 85
2018-05-01 01:00:00 10.6 4 Oeste 11 Oeste 0 -- -- 79
2018-05-01 00:00:00 11.3 4 Oeste 11 Sudoeste 0 -- -- 74
2018-04-30 23:00:00 11.8 4 Sudoeste 11 Sudoeste 0 -- -- 68
2018-04-30 22:00:00 13.3 4 Sudoeste 12 Sudoeste 0 -- -- 59
2018-04-30 21:00:00 14.8 6 Oeste 21 Oeste 0 -- -- 51
2018-04-30 20:00:00 16.8 14 Oeste 24 Oeste 0 -- -- 41
2018-04-30 19:00:00 17.1 12 Oeste 26 Oeste 0 -- -- 45
2018-04-30 18:00:00 17.8 13 Oeste 25 Oeste 0 -- -- 40
2018-04-30 17:00:00 17 14 Oeste 29 Oeste 0 -- -- 45
2018-04-30 16:00:00 17.1 10 Oeste 21 Oeste 0 -- -- 44
2018-04-30 15:00:00 15.9 8 Noroeste 19 Norte 0 -- -- 47
2018-04-30 14:00:00 15.5 9 Oeste 25 Oeste 0 -- -- 46
2018-04-30 13:00:00 14.9 3 Sudeste 15 Oeste 0 -- -- 48
2018-04-30 12:00:00 14.3 5 Nordeste 10 Este 0 -- -- 55
2018-04-30 11:00:00 12.6 3 Noroeste 8 Noroeste 0 -- -- 68
2018-04-30 10:00:00 10.2 5 Norte 9 Noroeste 0 -- -- 79
2018-04-30 09:00:00 9.2 0 Calma 5 Sudeste 0 -- -- 90
2018-04-30 08:00:00 5.8 3 Sudeste 6 Sudoeste 0 -- -- 95
2018-04-30 07:00:00 6 0 Calma 4 Oeste 0 -- -- 94
2018-04-30 06:00:00 6.6 2 Sudoeste 4 Oeste 0 -- -- 93
2018-04-30 05:00:00 7.1 2 Oeste 6 Oeste 0 -- -- 91
2018-04-30 04:00:00 7.8 0 Calma 8 Oeste 0 -- -- 89
2018-04-30 03:00:00 8.9 6 Oeste 12 Oeste 0 -- -- 90
2018-04-30 02:00:00 9.6 5 Oeste 9 Oeste 0 -- -- 88
2018-04-30 01:00:00 10.5 7 Sudoeste 12 Sudoeste 0 -- -- 87
2018-04-30 00:00:00 11.4 8 Sudoeste 15 Sudoeste 0 -- -- 84
2018-04-29 23:00:00 12.4 7 Sudoeste 13 Sudoeste 0 -- -- 80
2018-04-29 22:00:00 13.1 6 Sudoeste 13 Sudoeste 0 -- -- 76
2018-04-29 21:00:00 13.8 9 Sudoeste 31 Oeste 0.4 -- -- 76
2018-04-29 20:00:00 16.4 18 Oeste 38 Oeste 0 -- -- 53
2018-04-29 19:00:00 15.9 22 Oeste 45 Oeste 0 -- -- 53
2018-04-29 18:00:00 17.4 21 Oeste 46 Oeste 0 -- -- 41
2018-04-29 17:00:00 17.6 24 Oeste 50 Oeste 0 -- -- 42
2018-04-29 16:00:00 18.6 25 Oeste 45 Oeste 0 -- -- 35
2018-04-29 15:00:00 16.5 24 Oeste 49 Oeste 0 -- -- 46
2018-04-29 14:00:00 14.4 11 Oeste 39 Oeste 0.2 -- -- 64
2018-04-29 13:00:00 15.6 25 Oeste 48 Oeste 0 -- -- 50
2018-04-29 12:00:00 14.2 23 Oeste 42 Oeste 0 -- -- 56
2018-04-29 11:00:00 13 22 Oeste 38 Oeste 0 -- -- 64
2018-04-29 10:00:00 11.9 16 Sudoeste 33 Sudoeste 0 -- -- 70
2018-04-29 09:00:00 9.5 10 Sudoeste 21 Sudoeste 0 -- -- 84
2018-04-29 08:00:00 8.2 9 Sudoeste 24 Oeste 0 -- -- 90
2018-04-29 07:00:00 8.2 11 Sudoeste 26 Sudoeste 0 -- -- 90
2018-04-29 06:00:00 8.7 8 Sudoeste 20 Sudoeste 0 -- -- 87
2018-04-29 05:00:00 9 8 Sudoeste 21 Sudoeste 0 -- -- 84
2018-04-29 04:00:00 9.4 10 Sudoeste 24 Oeste 0 -- -- 80
2018-04-29 03:00:00 10.6 11 Sudoeste 26 Sudoeste 0 -- -- 75
2018-04-29 02:00:00 11.1 12 Sudoeste 42 Oeste 0 -- -- 75
2018-04-29 01:00:00 12.3 15 Sudoeste 30 Sudoeste 0 -- -- 80
2018-04-29 00:00:00 12.7 13 Sudoeste 39 Sudoeste 0 -- -- 74
2018-04-28 23:00:00 13.7 13 Sudoeste 34 Sudoeste 0 -- -- 64
2018-04-28 22:00:00 14.6 15 Sudoeste 41 Sudoeste 0 -- -- 55
2018-04-28 21:00:00 15.6 22 Sudoeste 40 Sudoeste 0 -- -- 52
2018-04-28 20:00:00 16.9 19 Oeste 39 Oeste 0 -- -- 48
2018-04-28 19:00:00 19.2 22 Oeste 42 Oeste 0 -- -- 33
2018-04-28 18:00:00 19.8 21 Sudoeste 38 Oeste 0 -- -- 33
2018-04-28 17:00:00 20.2 19 Oeste 40 Oeste 0 -- -- 33
2018-04-28 16:00:00 20.1 18 Oeste 41 Oeste 0 -- -- 33
2018-04-28 15:00:00 19.5 19 Oeste 40 Oeste 0 -- -- 35
2018-04-28 14:00:00 19.2 18 Oeste 31 Oeste 0 -- -- 42
2018-04-28 13:00:00 18.2 12 Oeste 24 Oeste 0 -- -- 59
2018-04-28 12:00:00 15.5 6 Oeste 10 Oeste 0 -- -- 71
2018-04-28 11:00:00 14.2 6 Noroeste 16 Sudoeste 0 -- -- 75
2018-04-28 10:00:00 13.5 9 Oeste 17 Oeste 0 -- -- 92
2018-04-28 09:00:00 14.1 7 Oeste 14 Oeste 0 -- -- 90
2018-04-28 08:00:00 12.8 4 Sudoeste 9 Sudoeste 0 -- -- 94
2018-04-28 07:00:00 12.2 2 Sudoeste 5 Oeste 0 -- -- 94
2018-04-28 06:00:00 12.3 0 Calma 4 Sudoeste 0 -- -- 91
2018-04-28 05:00:00 12.8 2 Sudoeste 5 Sudoeste 0 -- -- 91
2018-04-28 04:00:00 13.3 3 Sudoeste 8 Sudoeste 0 -- -- 90
2018-04-28 03:00:00 14.1 5 Sudoeste 10 Sudoeste 0 -- -- 88
2018-04-28 02:00:00 15 4 Sudoeste 12 Sudoeste 0 -- -- 83
2018-04-28 01:00:00 15.9 4 Sudoeste 9 Sudoeste 0 -- -- 79
2018-04-28 00:00:00 17.3 4 Sudoeste 17 Sudoeste 0 -- -- 73